Mountlake Terrace, Washington
Current Conditions -  °F | °C
As of 8:53 PM on Saturday 22 Nov 2014 (Local Time) from KPAE Reporting Station
Overcast Overcast  
Wind Chill: 41°   Ceiling: 6000
Heat Index: 45°   Visibility: 10mi
Dew Point: 42°   Wind: 8mph
Humidity: 90%   Direction: 160°SSE
Pressure: 30.06"   Gusts: NA
Location:  47.79°N, 122.31°W
Report Text: KPAE 230453Z AUTO 16007KT 10SM OVC060 07/06 A3006 RMK AO2 RAE29 SLP182 P0000 T00720056
Loading
Personal Weather Stations






























Interactive Weather Map New forecast layout! Learn more

10-Day Weather Forecast

Advertisements
Track Severe Weather on mobile